Wenn Sie den Mauscursor in der Übersichtskarte über ein Stationssymbol ziehen, so werden die aktuellen Stationsdaten eingeblendet. Neben dem Stationsnamen wird der Zeitpunkt in MEZ eingeblendet, bis zu dem aktuelle Daten verfügbar sind. Zunächst wird die aktuelle Niederschlagsumme für das letzte Messintervall angegeben (15 Minuten). Dadurch wird ersichtlich, ob und in welcher Intensität es regnet. Danach wird die Niederschlagsumme für die vergangenen 24 Stunden angegeben. Der aktuelle Lufttemperaturwert rundet die Information zum Mouse - Over ab.   

Durch Anklicken des entsprechenden Stationssymbols gelangen Sie zu den Gangliniendarstellung der Niederschlagshöhe und der Lufttemperatur. Jeder Parameter ist für einen Zeitraum für 30 Tage dargestellt. 

Wo verfügbar, stellen wir die Niederschlagsverhältnisse des aktuellen Kalenderjahres und des Vorjahres den langjährigen Vergleichsreihen grafisch auf 2 Arten gegenüber.

Eine Grafik wird in Form von Summenlinien erstellt. In dieser wird die Niederschlagssumme für das aktuelle Kalenderjahr und jenes davor ab Jahresbeginn tageweise aufsummiert und so den Vergleichszeitreihen (ebenso als minimale, mittlere und maximale Summenlinien dargestellt) gegenübergestellt.

In einer anderen Grafik vergleichen wir die Niederschlags - Monatssummen des aktuellen Kalenderjahres und des Vorjahres mit den langjährigen Vergleichsreihen. Dabei stellen wir für die Vergleichszeitreihen das langjährige Mittel, das Maximum und das Minimum für jedes Monat dar.

Zudem können Sie die Daten für die letzten 30 Tage downloaden.

Die  Stationssymbole auf der Übersichtskarte werden entsprechend der Niederschlagshöhe in den letzten 24 Stunden vor dem angegebenen Zeitpunkt bei der jeweiligen Station eingefärbt (siehe dazu Legende neben der Übersichtskarte).

Abschließend haben wir für Sie eine Übersichtstabelle unterhalb der Übersichtskarte angefügt. Hier werden die Niederschlagsstationen des Burgenlandes alphabetisch aufgelistet die aktuellen Messwerte dargestellt und es besteht die Möglichkeit der Navigation zu den bereits beschriebenen grafischen Darstellungen.

Stationsname Zeit [MEZ] NS [mm/15min] NS [mm/24h] Temp [°C] Luftfeuchte [%]
Andau 14.08.2022 16:45 0,0 0,0 28,5
Apetlon - A79 14.08.2022 17:00 0,0 0,0 27,5 100,0
Aspang 14.08.2022 16:45 0,0 1,6 20,6
Bad Tatzmannsdorf 14.08.2022 16:45 0,0 0,0 25,8
Bernstein 14.08.2022 16:45 0,0 0,0 23,8
Bonisdorf 14.08.2022 17:00 0,0 0,0 27,8 48,0
Bruckneudorf 14.08.2022 16:45 0,0 0,0 28,2
Deutsch Jahrndorf 14.08.2022 17:00 0,0 0,7 28,9 48,0
Deutsch Kaltenbrunn 14.08.2022 17:00 0,0 0,0 27,2
Deutschkreutz 14.08.2022 17:00 0,0 0,0 26,9 55,0
Donnerskirchen 14.08.2022 17:00 0,0 0,1 29,1 45,0
Drassburg 14.08.2022 17:00 0,0 0,0 27,5 49,0
Dürnbach 14.08.2022 17:00 0,0 0,0 25,6 59,0
Eisenstadt 14.08.2022 17:00 0,0 0,0 27,4 54,0
Feldbach 14.08.2022 16:45 0,0 0,0 27,7
Fischbach 14.08.2022 16:45 0,0 0,0 17,9
Frankenau 14.08.2022 17:00 0,0 0,0 26,7 58,0
Frauenkirchen 14.08.2022 17:00 0,0 0,0 28,0 54,0
Fürstenfeld 14.08.2022 16:45 0,0 0,0 29,8
Gattendorf 14.08.2022 17:00 0,0 0,5 28,6 49,0
Glasing 14.08.2022 17:00 0,0 0,0 29,4
Gleisdorf 14.08.2022 16:45 0,0 2,1 29,0
Halbturn 14.08.2022 17:00 0,0 0,0 27,9 58,0
Heiligenkreuz 14.08.2022 17:00 0,0 0,0 28,0 46,0
Hirschenkogel 14.08.2022 16:45 0,0 0,2 29,0
Hirschenstein 14.08.2022 17:00 0,0 1,8 22,1 84,0
Illmitz - Biologische Station 14.08.2022 17:00 0,0 0,0 27,7
Karl 14.08.2022 17:00 0,0 0,0 24,6 74,0
Kleinzicken 14.08.2022 16:45 0,0 0,0 27,5
Kobersdorf 14.08.2022 17:00 0,0 0,0 25,6 60,0
Lutzmannsburg 14.08.2022 16:45 0,0 0,0 26,8
Mattersburg 14.08.2022 16:45 0,0 0,0 27,6
Moenichkirchen 14.08.2022 16:45 0,0 17,0 17,1
Nebersdorf 14.08.2022 17:00 0,0 0,0 26,4 59,0
Neumarkt an der Raab 14.08.2022 17:00 0,0 0,0 30,1 43,0
Neusiedl am See 14.08.2022 16:45 0,0 0,0 28,2
Neustift an der Rosalia 14.08.2022 17:00 0,0 0,0 24,3 59,0
Nickelsdorf 14.08.2022 17:00 0,0 0,4 28,5 51,0
Nikitsch 14.08.2022 17:00 0,0 0,0 26,7 57,0
Oberpullendorf 14.08.2022 17:00 0,0 0,1 26,7 55,0
Oberwart 14.08.2022 17:00 0,3 0,4 24,9 73,0
Pinkafeld 14.08.2022 17:00 0,3 1,3 20,5 100,0
Pottschach 14.08.2022 16:45 0,0 0,1 27,9
Puchberg 14.08.2022 16:45 0,0 0,2 24,4
Ritzing 14.08.2022 17:00 0,0 0,0 26,0 66,0
Rust 14.08.2022 17:00 0,0 0,5 28,2 55,0
Seibersdorf 14.08.2022 16:45 0,0 0,0 29,2
Sieggraben 14.08.2022 17:00 0,0 0,0 24,1 64,0
St. Margarethen - Berg 14.08.2022 17:00 0,0 0,3 28,6 48,0
St. Michael 14.08.2022 17:00 0,0 0,0 29,2 50,0
Stadtschlaining 14.08.2022 17:00 0,0 0,1 22,6 48,0
Trausdorf 14.08.2022 17:00 0,0 0,9 29,2 52,0
Wiener Neustadt 14.08.2022 16:45 0,0 0,0 26,4
Woerterberg 14.08.2022 16:45 0,0 0,0 26,2
Wulkaprodersdorf 14.08.2022 17:00 0,0 0,5 28,9 50,0
Zurndorf - Friedrichshof 14.08.2022 17:00 0,0 0,0 28,1 53,0